Time;durP1;ratioP1;P1;durP2;ratioP2;P2;SDS_P1;SDS_P2;PMS_P1;PMS_P2;Temp;Humidity;BMP_temperature;BMP_pressure;BME280_temperature;BME280_humidity;BME280_pressure;Samples;Min_cycle;Max_cycle;Signal;HPM_P1;HPM_P2
2022/01/20 00:04:20;;;;;;;43.47;22.02;;;23.10;36.60;;;;;;6057359;28;83452;-69
2022/01/20 00:27:04;;;;;;;30.58;15.73;;;23.20;36.30;;;;;;6090835;28;83326;-68
2022/01/20 00:39:51;;;;;;;24.38;12.60;;;23.10;36.10;;;;;;6087780;28;83381;-68
2022/01/20 00:42:52;;;;;;;21.30;11.73;;;23.10;36.00;;;;;;6085697;28;83912;-69
2022/01/20 00:45:53;;;;;;;19.30;10.43;;;23.10;36.10;;;;;;6083090;28;83388;-69
2022/01/20 00:48:53;;;;;;;18.55;9.57;;;23.00;35.90;;;;;;6106490;28;83526;-69
2022/01/20 00:51:54;;;;;;;16.13;9.43;;;23.10;36.10;;;;;;6108643;28;83053;-69
2022/01/20 00:54:54;;;;;;;14.40;8.63;;;23.10;36.00;;;;;;6108792;28;80322;-70
2022/01/20 00:57:55;;;;;;;14.90;8.50;;;23.10;36.40;;;;;;6092095;28;80548;-69
2022/01/20 01:00:55;;;;;;;15.20;8.63;;;23.10;36.40;;;;;;6086314;28;80598;-69
2022/01/20 01:03:56;;;;;;;15.32;8.27;;;23.00;36.30;;;;;;6103158;28;80667;-69
2022/01/20 01:10:16;;;;;;;12.00;7.30;;;23.00;36.30;;;;;;6081488;28;82243;-69
2022/01/20 01:13:18;;;;;;;13.27;7.20;;;23.00;36.20;;;;;;6106365;28;81080;-72
2022/01/20 01:16:20;;;;;;;12.30;7.00;;;23.00;36.20;;;;;;6109401;28;80415;-71
2022/01/20 01:22:40;;;;;;;8.35;5.43;;;23.00;36.10;;;;;;6099071;28;81587;-71
2022/01/20 01:25:40;;;;;;;11.07;5.53;;;23.00;36.10;;;;;;6085917;28;84208;-71
2022/01/20 01:28:41;;;;;;;8.93;5.47;;;23.00;36.10;;;;;;6099397;28;81970;-70
2022/01/20 01:31:41;;;;;;;9.68;5.10;;;23.00;36.10;;;;;;6100311;28;81583;-69
2022/01/20 01:34:48;;;;;;;10.23;5.30;;;23.00;36.10;;;;;;6091898;28;82864;-69
2022/01/20 01:40:55;;;;;;;6.75;4.13;;;23.00;36.10;;;;;;6096417;28;81225;-69
2022/01/20 01:43:56;;;;;;;6.88;4.38;;;23.10;36.20;;;;;;6082982;28;80652;-69
2022/01/20 01:46:57;;;;;;;5.22;3.92;;;23.00;35.90;;;;;;6108712;28;80714;-68
2022/01/20 01:49:57;;;;;;;5.60;4.00;;;23.00;36.00;;;;;;6090534;28;83065;-69
2022/01/20 01:52:58;;;;;;;5.85;3.83;;;23.00;36.10;;;;;;6090330;28;87606;-69
2022/01/20 01:55:58;;;;;;;6.15;3.95;;;23.00;36.10;;;;;;6087996;28;81317;-68
2022/01/20 01:59:00;;;;;;;6.68;4.03;;;23.00;36.10;;;;;;6089272;28;81509;-69
2022/01/20 02:02:15;;;;;;;7.07;3.20;;;23.00;36.20;;;;;;6084008;28;87812;-69
2022/01/20 02:05:20;;;;;;;4.43;3.08;;;23.00;36.60;;;;;;6089825;28;82477;-69
2022/01/20 02:08:53;;;;;;;4.60;3.13;;;23.00;36.50;;;;;;6085709;28;82675;-69
2022/01/20 02:18:43;;;;;;;4.93;3.22;;;23.00;36.40;;;;;;6084558;28;82929;-69
2022/01/20 02:22:03;;;;;;;4.07;3.03;;;23.00;36.80;;;;;;6091037;28;81738;-69
2022/01/20 02:25:12;;;;;;;7.53;3.40;;;23.00;36.70;;;;;;6093806;28;80429;-69
2022/01/20 02:28:12;;;;;;;3.97;2.78;;;23.00;36.60;;;;;;6078892;28;83277;-69
2022/01/20 02:31:13;;;;;;;3.83;2.90;;;23.00;36.60;;;;;;6089328;28;83310;-69
2022/01/20 02:34:16;;;;;;;5.40;3.10;;;23.00;36.60;;;;;;6092354;28;81596;-69
2022/01/20 02:37:17;;;;;;;6.35;3.90;;;23.00;36.50;;;;;;6094294;28;82235;-69
2022/01/20 02:46:53;;;;;;;6.90;3.50;;;23.00;36.60;;;;;;6075725;28;82161;-69
2022/01/20 02:49:53;;;;;;;5.35;2.85;;;23.00;36.50;;;;;;6100828;28;80323;-69
2022/01/20 02:52:54;;;;;;;5.38;3.08;;;23.00;36.50;;;;;;6082500;28;83220;-70
2022/01/20 02:55:54;;;;;;;5.45;2.67;;;23.00;36.70;;;;;;6092525;28;83306;-69
2022/01/20 02:58:55;;;;;;;5.82;2.92;;;23.00;36.40;;;;;;6091491;28;82894;-69
2022/01/20 03:01:55;;;;;;;5.50;3.08;;;23.00;36.50;;;;;;6092214;28;83327;-70
2022/01/20 03:04:56;;;;;;;4.32;2.88;;;23.00;36.60;;;;;;6109163;28;81322;-70
2022/01/20 03:08:04;;;;;;;3.30;2.50;;;23.00;36.40;;;;;;6093623;28;82610;-70
2022/01/20 03:11:05;;;;;;;3.88;2.67;;;23.00;36.50;;;;;;6093918;28;83591;-70
2022/01/20 03:14:05;;;;;;;2.72;2.13;;;23.00;36.70;;;;;;6110256;28;80666;-70
2022/01/20 03:17:06;;;;;;;2.50;2.15;;;23.00;36.60;;;;;;6109935;28;80413;-69
2022/01/20 03:20:06;;;;;;;3.28;2.40;;;23.00;36.60;;;;;;6078775;28;82229;-70
2022/01/20 03:23:07;;;;;;;3.35;2.22;;;23.00;36.20;;;;;;6104199;28;80349;-69
2022/01/20 03:26:08;;;;;;;3.70;2.20;;;23.00;36.10;;;;;;6089353;28;83329;-69
2022/01/20 03:29:10;;;;;;;2.45;2.05;;;23.10;36.20;;;;;;6082296;28;83168;-70
2022/01/20 03:32:11;;;;;;;3.53;2.40;;;23.10;36.10;;;;;;6088040;28;83357;-70
2022/01/20 03:35:12;;;;;;;3.63;2.08;;;23.20;36.00;;;;;;6108960;28;80465;-70
2022/01/20 03:38:14;;;;;;;2.25;2.00;;;23.20;35.90;;;;;;6088055;28;86047;-69
2022/01/20 03:41:14;;;;;;;2.30;1.88;;;23.30;35.90;;;;;;6092127;28;83279;-69
2022/01/20 03:44:16;;;;;;;1.92;1.70;;;23.30;35.80;;;;;;6090080;28;83128;-69
2022/01/20 03:47:18;;;;;;;2.17;1.98;;;23.40;36.00;;;;;;6091117;28;82142;-69
2022/01/20 03:53:38;;;;;;;2.30;1.70;;;23.40;35.70;;;;;;6088229;28;83096;-69
2022/01/20 03:56:40;;;;;;;4.25;2.45;;;23.50;35.80;;;;;;6060307;28;82704;-68
2022/01/20 04:00:07;;;;;;;2.78;1.85;;;23.50;35.70;;;;;;6077773;28;80322;-69
2022/01/20 04:03:25;;;;;;;3.25;2.00;;;23.50;35.70;;;;;;6092376;28;81712;-69
2022/01/20 04:06:29;;;;;;;3.05;1.60;;;23.50;35.60;;;;;;6090726;28;83747;-69
2022/01/20 04:09:29;;;;;;;2.63;1.80;;;23.50;35.40;;;;;;6092741;28;83235;-69
2022/01/20 04:12:30;;;;;;;2.35;2.05;;;23.50;35.40;;;;;;6077169;28;81677;-69
2022/01/20 04:15:38;;;;;;;2.03;1.42;;;23.50;35.50;;;;;;6092598;28;83743;-69
2022/01/20 04:18:39;;;;;;;1.85;1.67;;;23.60;35.50;;;;;;6090553;28;82193;-69
2022/01/20 04:21:40;;;;;;;2.10;1.67;;;23.60;36.20;;;;;;6091192;28;83180;-68
2022/01/20 04:24:41;;;;;;;4.25;1.90;;;23.60;35.50;;;;;;6091665;28;82916;-69
2022/01/20 04:27:42;;;;;;;1.73;1.63;;;23.60;35.50;;;;;;6084311;28;82568;-68
2022/01/20 04:30:43;;;;;;;2.40;1.67;;;23.70;35.60;;;;;;6092019;28;83778;-68
2022/01/20 04:33:43;;;;;;;2.40;1.83;;;23.60;35.50;;;;;;6092929;28;83397;-68
2022/01/20 04:36:46;;;;;;;2.55;2.15;;;23.70;35.60;;;;;;6090251;28;83227;-69
2022/01/20 04:39:50;;;;;;;1.80;1.60;;;23.70;35.60;;;;;;6090105;28;81965;-69
2022/01/20 04:42:51;;;;;;;1.75;1.50;;;23.70;35.60;;;;;;6090751;28;82363;-69
2022/01/20 04:46:01;;;;;;;2.40;1.65;;;23.70;35.50;;;;;;6093199;28;80476;-67
2022/01/20 04:58:45;;;;;;;1.65;1.55;;;23.70;36.40;;;;;;6085369;28;82832;-68
2022/01/20 05:01:47;;;;;;;2.33;1.58;;;23.80;36.60;;;;;;6091051;28;83358;-69
2022/01/20 05:04:59;;;;;;;1.60;1.50;;;23.80;36.60;;;;;;6080620;28;82501;-69
2022/01/20 05:08:12;;;;;;;1.77;1.63;;;23.80;36.80;;;;;;6078177;28;83394;-68
2022/01/20 05:11:14;;;;;;;1.80;1.67;;;23.80;36.60;;;;;;6086840;28;83148;-64
2022/01/20 05:14:14;;;;;;;2.38;1.85;;;23.80;36.70;;;;;;6079046;28;87384;-70
2022/01/20 05:17:15;;;;;;;2.42;2.00;;;23.80;37.30;;;;;;6079675;28;83326;-69
2022/01/20 05:20:18;;;;;;;3.10;1.85;;;23.90;36.90;;;;;;6091113;28;82533;-69
2022/01/20 05:23:19;;;;;;;2.17;1.98;;;23.90;36.60;;;;;;6086574;28;82252;-68
2022/01/20 05:26:19;;;;;;;2.58;1.70;;;23.90;36.50;;;;;;6104144;28;81440;-67
2022/01/20 05:29:20;;;;;;;3.47;1.80;;;23.90;36.80;;;;;;6089130;28;83164;-69
2022/01/20 05:32:21;;;;;;;3.33;2.13;;;23.90;37.20;;;;;;6087997;28;83265;-66
2022/01/20 05:35:21;;;;;;;3.45;1.70;;;23.90;37.00;;;;;;6079454;28;83171;-66
2022/01/20 05:38:22;;;;;;;9.85;1.80;;;23.90;37.50;;;;;;6089051;28;81400;-66
2022/01/20 05:41:24;;;;;;;1.80;1.50;;;23.90;37.80;;;;;;6083671;28;82416;-67
2022/01/20 05:44:30;;;;;;;3.58;2.08;;;23.90;37.80;;;;;;6081551;28;82200;-67
2022/01/20 05:47:32;;;;;;;2.08;1.88;;;23.90;37.40;;;;;;6080143;28;83509;-67
2022/01/20 05:51:04;;;;;;;1.85;1.60;;;23.90;39.20;;;;;;6101805;28;81141;-68
2022/01/20 05:54:05;;;;;;;4.53;2.20;;;23.90;37.40;;;;;;6092868;28;82850;-67
2022/01/20 05:57:10;;;;;;;2.80;1.80;;;23.90;38.00;;;;;;6106328;28;80547;-66
2022/01/20 06:00:11;;;;;;;2.13;1.60;;;23.90;38.00;;;;;;6083702;28;82828;-67
2022/01/20 06:03:36;;;;;;;3.85;1.65;;;23.90;38.30;;;;;;6091620;28;83838;-67
2022/01/20 06:06:36;;;;;;;2.85;2.00;;;23.90;38.90;;;;;;6093650;28;82148;-67
2022/01/20 06:09:37;;;;;;;5.00;1.52;;;23.90;39.10;;;;;;6094575;28;83357;-66
2022/01/20 06:12:38;;;;;;;4.65;2.25;;;23.90;39.30;;;;;;6094507;28;83329;-66
2022/01/20 06:15:38;;;;;;;4.28;1.95;;;23.80;39.70;;;;;;6091638;28;83245;-66
2022/01/20 06:18:39;;;;;;;3.15;2.00;;;23.80;40.30;;;;;;6090016;28;82547;-66
2022/01/20 06:21:41;;;;;;;2.58;1.83;;;23.80;40.70;;;;;;6108149;28;81313;-67
2022/01/20 06:24:42;;;;;;;3.60;2.10;;;23.80;40.90;;;;;;6093799;28;81276;-66
2022/01/20 06:27:42;;;;;;;4.63;2.15;;;23.80;40.90;;;;;;6110565;28;80572;-67
2022/01/20 06:30:43;;;;;;;2.63;1.98;;;23.80;41.00;;;;;;6092487;28;83443;-67
2022/01/20 06:33:43;;;;;;;2.05;1.77;;;23.80;40.40;;;;;;6084143;28;83296;-66
2022/01/20 06:36:45;;;;;;;2.83;1.77;;;23.80;40.70;;;;;;6090959;28;81786;-66
2022/01/20 06:39:46;;;;;;;5.10;2.33;;;23.80;41.00;;;;;;6082445;28;82041;-67
2022/01/20 06:42:46;;;;;;;4.65;1.90;;;23.80;40.70;;;;;;6079257;28;83362;-64
2022/01/20 06:45:47;;;;;;;2.22;1.90;;;23.70;41.40;;;;;;6089596;28;81662;-67
2022/01/20 06:48:52;;;;;;;7.10;2.35;;;23.70;40.90;;;;;;6093919;28;83253;-68
2022/01/20 06:52:03;;;;;;;4.60;2.00;;;23.70;41.60;;;;;;6090587;28;83036;-69
2022/01/20 06:55:05;;;;;;;2.80;2.00;;;23.70;40.90;;;;;;6093678;28;83265;-66
2022/01/20 06:58:06;;;;;;;4.32;2.25;;;23.70;41.40;;;;;;6109335;28;80465;-67
2022/01/20 07:01:06;;;;;;;4.85;1.95;;;23.60;42.30;;;;;;6095115;28;80829;-68
2022/01/20 07:04:08;;;;;;;11.80;2.40;;;23.70;41.60;;;;;;6099198;28;80301;-69
2022/01/20 07:07:09;;;;;;;2.80;2.40;;;23.60;42.00;;;;;;6071291;28;82322;-69
2022/01/20 07:10:13;;;;;;;5.13;2.30;;;23.60;41.10;;;;;;6097194;28;80476;-69
2022/01/20 07:13:19;;;;;;;2.58;1.80;;;23.60;41.00;;;;;;6084740;28;82132;-68
2022/01/20 07:16:21;;;;;;;2.38;2.10;;;23.60;41.30;;;;;;6077927;28;81550;-70
2022/01/20 07:19:21;;;;;;;2.80;2.10;;;23.50;41.10;;;;;;6105856;28;80578;-70
2022/01/20 07:22:22;;;;;;;2.75;2.22;;;23.50;41.00;;;;;;6086292;28;83166;-68
2022/01/20 07:25:25;;;;;;;3.58;1.90;;;23.50;41.20;;;;;;6091192;28;82317;-71
2022/01/20 07:28:28;;;;;;;2.45;1.95;;;23.50;41.00;;;;;;6086149;28;80560;-71
2022/01/20 07:31:28;;;;;;;3.22;2.00;;;23.50;40.70;;;;;;6093882;28;82815;-69
2022/01/20 07:34:29;;;;;;;4.68;2.72;;;23.50;40.90;;;;;;6084222;28;83171;-67
2022/01/20 07:37:29;;;;;;;5.35;3.15;;;23.50;40.90;;;;;;6097689;28;80393;-68
2022/01/20 07:40:32;;;;;;;3.92;2.47;;;23.50;41.20;;;;;;6088329;28;83503;-69
2022/01/20 07:43:32;;;;;;;3.50;2.40;;;23.50;41.30;;;;;;6075424;28;82917;-68
2022/01/20 07:46:43;;;;;;;3.47;2.38;;;23.50;42.00;;;;;;6080026;28;82665;-64
2022/01/20 07:49:46;;;;;;;3.05;2.22;;;23.50;41.50;;;;;;6090495;28;83239;-69
2022/01/20 07:52:47;;;;;;;2.95;2.33;;;23.50;40.80;;;;;;6074766;28;84638;-68
2022/01/20 07:55:48;;;;;;;2.95;1.83;;;23.40;40.50;;;;;;6090614;28;83113;-69
2022/01/20 07:58:49;;;;;;;2.85;1.98;;;23.40;40.60;;;;;;6087925;28;83254;-69
2022/01/20 08:01:50;;;;;;;5.35;2.50;;;23.40;41.20;;;;;;6092654;28;83133;-69
2022/01/20 08:04:51;;;;;;;3.88;2.13;;;23.40;40.90;;;;;;6073125;28;83249;-69
2022/01/20 08:07:52;;;;;;;1.75;1.65;;;23.30;41.90;;;;;;6080174;28;83887;-64
2022/01/20 08:10:52;;;;;;;2.17;1.63;;;23.30;43.40;;;;;;6086999;28;83252;-66
2022/01/20 08:13:53;;;;;;;2.97;1.80;;;23.30;44.20;;;;;;6082871;28;82871;-68
2022/01/20 08:16:54;;;;;;;2.33;1.23;;;23.20;45.30;;;;;;6103056;28;82177;-69
2022/01/20 08:19:55;;;;;;;1.73;1.50;;;23.20;45.70;;;;;;6080290;28;83335;-70
2022/01/20 08:22:56;;;;;;;2.05;1.42;;;23.20;46.30;;;;;;6080276;28;82364;-68
2022/01/20 08:25:56;;;;;;;4.00;1.80;;;23.20;46.90;;;;;;6079310;28;83759;-68
2022/01/20 08:28:57;;;;;;;2.97;1.20;;;23.20;47.30;;;;;;6079715;28;83492;-69
2022/01/20 08:31:58;;;;;;;1.30;1.05;;;23.20;47.80;;;;;;6083070;28;81662;-68
2022/01/20 08:35:09;;;;;;;2.35;1.50;;;23.20;47.80;;;;;;6087454;28;83386;-68
2022/01/20 08:38:23;;;;;;;32.90;14.30;;;23.20;47.80;;;;;;6087634;28;87735;-69
2022/01/20 08:41:24;;;;;;;134.13;60.80;;;23.10;47.90;;;;;;6087312;28;83441;-68
2022/01/20 08:44:25;;;;;;;270.45;127.20;;;22.90;48.50;;;;;;6071453;28;85331;-69
2022/01/20 08:47:26;;;;;;;178.73;84.70;;;22.90;49.00;;;;;;6101181;28;85720;-67
2022/01/20 08:50:27;;;;;;;128.57;61.78;;;22.80;48.90;;;;;;6086122;28;88405;-66
2022/01/20 08:53:31;;;;;;;225.50;108.85;;;23.00;48.90;;;;;;6107340;28;84242;-67
2022/01/20 08:56:34;;;;;;;306.77;137.48;;;22.90;50.40;;;;;;6070223;28;85954;-66
2022/01/20 08:59:35;;;;;;;373.00;170.88;;;22.80;50.10;;;;;;6100788;28;85227;-67
2022/01/20 09:02:36;;;;;;;308.70;136.82;;;22.80;50.60;;;;;;6076482;28;88354;-67
2022/01/20 09:05:38;;;;;;;267.40;122.97;;;22.80;50.60;;;;;;6083700;28;88298;-66
2022/01/20 09:08:42;;;;;;;220.07;104.10;;;22.90;49.80;;;;;;6096328;28;86980;-66
2022/01/20 09:12:02;;;;;;;175.57;81.32;;;23.00;48.90;;;;;;6084401;28;85458;-65
2022/01/20 09:18:24;;;;;;;692.30;339.50;;;23.10;48.90;;;;;;6082032;28;85817;-68
2022/01/20 09:21:27;;;;;;;708.70;342.40;;;23.10;48.50;;;;;;6080101;28;87937;-65
2022/01/20 09:24:31;;;;;;;777.45;374.02;;;23.00;48.50;;;;;;6074686;28;86485;-68
2022/01/20 09:27:34;;;;;;;650.90;311.83;;;23.10;49.00;;;;;;6078237;28;87549;-67
2022/01/20 09:30:36;;;;;;;564.97;261.20;;;23.10;49.30;;;;;;6077150;28;85675;-68
2022/01/20 09:33:39;;;;;;;495.38;217.27;;;23.10;48.90;;;;;;6080669;28;87919;-69
2022/01/20 09:36:41;;;;;;;447.85;190.23;;;23.20;48.50;;;;;;6083617;28;87910;-68
2022/01/20 09:39:42;;;;;;;391.27;167.73;;;23.30;48.00;;;;;;6081428;28;88290;-68
2022/01/20 09:43:01;;;;;;;368.92;149.68;;;23.40;47.00;;;;;;6086472;28;85907;-69
2022/01/20 09:46:01;;;;;;;295.42;125.68;;;23.60;46.50;;;;;;6084125;28;87870;-71
2022/01/20 09:49:05;;;;;;;282.05;122.85;;;23.70;46.20;;;;;;6083912;28;87589;-66
2022/01/20 09:52:12;;;;;;;219.18;92.35;;;23.80;46.10;;;;;;6083637;28;87932;-62
2022/01/20 09:55:17;;;;;;;122.43;58.03;;;24.00;44.90;;;;;;6087738;28;86573;-64
2022/01/20 09:58:17;;;;;;;104.00;46.80;;;24.00;43.70;;;;;;6071700;28;85709;-65
2022/01/20 10:01:18;;;;;;;86.18;36.85;;;24.10;43.10;;;;;;6086484;28;86017;-67
2022/01/20 10:04:19;;;;;;;78.90;30.33;;;24.20;42.70;;;;;;6081536;28;84339;-69
2022/01/20 10:07:19;;;;;;;62.20;26.70;;;24.30;41.50;;;;;;6083419;28;84728;-67
2022/01/20 10:10:29;;;;;;;55.88;24.30;;;24.40;41.20;;;;;;6082884;28;84880;-67
2022/01/20 10:13:40;;;;;;;55.05;24.05;;;24.50;41.00;;;;;;6084305;28;84837;-68
2022/01/20 10:17:07;;;;;;;41.42;20.02;;;24.60;41.10;;;;;;6086641;28;83468;-68
2022/01/20 10:20:10;;;;;;;40.05;18.15;;;24.70;41.30;;;;;;6082942;28;85433;-68
2022/01/20 10:23:20;;;;;;;40.17;18.10;;;24.80;41.40;;;;;;6081619;28;89885;-68
2022/01/20 10:26:39;;;;;;;36.88;16.45;;;24.80;41.50;;;;;;6071670;28;86125;-66
2022/01/20 10:29:40;;;;;;;33.70;15.20;;;24.90;41.60;;;;;;6079396;28;85605;-67
2022/01/20 10:32:41;;;;;;;28.25;13.30;;;24.90;41.50;;;;;;6069600;28;85825;-66
2022/01/20 10:35:42;;;;;;;27.77;13.02;;;24.80;41.10;;;;;;6077976;28;84994;-67
2022/01/20 10:38:50;;;;;;;24.52;11.63;;;24.70;41.70;;;;;;6088962;28;85943;-67
2022/01/20 10:41:51;;;;;;;23.45;12.18;;;24.60;42.90;;;;;;6085174;28;85857;-66
2022/01/20 10:44:52;;;;;;;25.63;11.07;;;24.60;42.70;;;;;;6089828;28;84802;-67
2022/01/20 10:47:53;;;;;;;27.25;9.85;;;24.50;42.90;;;;;;6086450;28;86452;-69
2022/01/20 10:50:56;;;;;;;15.90;8.88;;;24.40;42.60;;;;;;6090349;28;85660;-69
2022/01/20 10:53:56;;;;;;;17.95;9.05;;;24.30;44.20;;;;;;6093686;28;82802;-66
2022/01/20 10:56:57;;;;;;;19.58;8.23;;;24.20;43.10;;;;;;6095255;28;83110;-67
2022/01/20 10:59:58;;;;;;;16.50;8.10;;;24.20;43.50;;;;;;6076952;28;83271;-68
2022/01/20 11:03:14;;;;;;;13.70;6.53;;;24.10;43.60;;;;;;6092290;28;81621;-69
2022/01/20 11:06:15;;;;;;;15.10;7.40;;;24.10;43.40;;;;;;6094635;28;83404;-67
2022/01/20 11:09:20;;;;;;;11.27;6.03;;;24.00;43.90;;;;;;6090460;28;83427;-68
2022/01/20 11:12:41;;;;;;;15.43;6.75;;;24.00;44.30;;;;;;6096608;28;80538;-68
2022/01/20 11:16:02;;;;;;;17.58;7.35;;;24.00;44.40;;;;;;6100230;28;80225;-68
2022/01/20 11:19:03;;;;;;;13.20;7.25;;;23.90;44.70;;;;;;6090735;28;83313;-69
2022/01/20 11:22:04;;;;;;;15.95;6.78;;;23.90;46.20;;;;;;6091402;28;83084;-68
2022/01/20 11:25:04;;;;;;;21.83;7.45;;;23.90;45.80;;;;;;6090827;28;83114;-67
2022/01/20 11:28:19;;;;;;;14.10;6.65;;;23.80;46.50;;;;;;6084594;28;83517;-69
2022/01/20 11:31:25;;;;;;;19.70;6.80;;;23.70;46.60;;;;;;6110763;28;80616;-69
2022/01/20 11:34:36;;;;;;;19.45;7.93;;;23.70;46.80;;;;;;6093825;28;82406;-68
2022/01/20 11:37:37;;;;;;;17.20;7.40;;;23.70;46.80;;;;;;6101301;28;80600;-69
2022/01/20 11:40:38;;;;;;;12.20;6.63;;;23.80;47.20;;;;;;6101180;28;81559;-69
2022/01/20 11:43:38;;;;;;;18.98;6.50;;;23.70;47.00;;;;;;6109632;28;80349;-69
2022/01/20 11:46:39;;;;;;;12.57;5.40;;;23.70;47.10;;;;;;6104003;28;83608;-67
2022/01/20 11:49:40;;;;;;;14.07;5.80;;;23.70;47.80;;;;;;6105795;28;80374;-68
2022/01/20 11:52:40;;;;;;;17.27;5.65;;;23.70;47.50;;;;;;6102457;28;80520;-70
2022/01/20 11:55:41;;;;;;;13.85;5.65;;;23.70;47.30;;;;;;6100835;28;80638;-68
2022/01/20 11:58:41;;;;;;;12.07;5.93;;;23.70;47.40;;;;;;6106328;28;80611;-69
2022/01/20 12:01:42;;;;;;;12.60;5.43;;;23.60;47.00;;;;;;6100652;28;80368;-67
2022/01/20 12:04:43;;;;;;;14.90;5.80;;;23.60;46.80;;;;;;6098101;28;80742;-67
2022/01/20 12:07:49;;;;;;;8.23;4.60;;;23.60;46.50;;;;;;6086501;28;82885;-69
2022/01/20 12:10:49;;;;;;;10.50;4.57;;;23.60;46.70;;;;;;6100378;28;81073;-69
2022/01/20 12:13:50;;;;;;;11.63;4.20;;;23.60;46.60;;;;;;6087373;28;81730;-68
2022/01/20 12:16:50;;;;;;;7.32;4.05;;;23.50;46.60;;;;;;6104133;28;80719;-67
2022/01/20 12:19:51;;;;;;;7.57;4.00;;;23.50;46.60;;;;;;6109143;28;81079;-69
2022/01/20 12:22:51;;;;;;;7.38;3.63;;;23.50;46.30;;;;;;6105683;28;81579;-69
2022/01/20 12:25:52;;;;;;;8.38;3.72;;;23.50;46.40;;;;;;6100866;28;81536;-72
2022/01/20 12:28:52;;;;;;;7.78;3.92;;;23.40;46.30;;;;;;6105340;28;80550;-70
2022/01/20 12:31:54;;;;;;;6.95;3.15;;;23.50;45.90;;;;;;6105653;28;81876;-69
2022/01/20 12:34:55;;;;;;;6.70;3.30;;;23.40;46.20;;;;;;6109671;28;80637;-69
2022/01/20 12:37:55;;;;;;;5.93;2.80;;;23.50;46.00;;;;;;6109479;28;80137;-67
2022/01/20 12:40:56;;;;;;;5.53;3.17;;;23.40;45.80;;;;;;6095751;28;80491;-64
2022/01/20 12:44:03;;;;;;;6.70;3.17;;;23.40;45.80;;;;;;6089076;28;82646;-69
2022/01/20 12:47:03;;;;;;;6.20;2.75;;;23.40;45.70;;;;;;6103216;28;81288;-74
2022/01/20 12:50:04;;;;;;;6.78;2.60;;;23.40;45.50;;;;;;6106078;28;80910;-72
2022/01/20 12:53:05;;;;;;;3.92;2.53;;;23.40;44.90;;;;;;6106243;28;80362;-69
2022/01/20 12:56:05;;;;;;;5.55;2.60;;;23.40;44.90;;;;;;6103397;28;81570;-68
2022/01/20 12:59:06;;;;;;;6.20;2.92;;;23.40;44.70;;;;;;6098139;28;80914;-72
2022/01/20 13:02:06;;;;;;;4.30;2.60;;;23.50;44.60;;;;;;6096554;28;80858;-73
2022/01/20 13:05:07;;;;;;;6.20;2.92;;;23.40;44.40;;;;;;6100992;28;81147;-69
2022/01/20 13:08:07;;;;;;;7.40;2.60;;;23.50;44.20;;;;;;6102272;28;81097;-70
2022/01/20 13:11:10;;;;;;;6.63;2.65;;;23.50;44.10;;;;;;6106016;28;80473;-69
2022/01/20 13:14:10;;;;;;;4.28;2.00;;;23.50;43.90;;;;;;6099345;28;80555;-70
2022/01/20 13:17:11;;;;;;;5.72;2.17;;;23.60;43.90;;;;;;6095818;28;80378;-69
2022/01/20 13:20:11;;;;;;;3.90;2.00;;;23.60;43.90;;;;;;6102859;28;82522;-69
2022/01/20 13:26:15;;;;;;;6.20;2.75;;;23.60;43.40;;;;;;6103023;28;84904;-70
2022/01/20 13:29:16;;;;;;;4.07;2.03;;;23.60;43.90;;;;;;6106696;28;81813;-70
2022/01/20 13:32:16;;;;;;;3.67;2.00;;;23.60;43.20;;;;;;6108017;28;80483;-69
2022/01/20 13:35:17;;;;;;;3.00;1.85;;;23.60;43.10;;;;;;6105720;28;81096;-71
2022/01/20 13:38:17;;;;;;;3.42;1.65;;;23.70;43.00;;;;;;6093050;28;80411;-71
2022/01/20 13:41:22;;;;;;;2.75;1.98;;;23.70;43.10;;;;;;6081641;28;81527;-69
2022/01/20 13:47:42;;;;;;;3.33;2.13;;;23.70;43.40;;;;;;6100008;28;80754;-67
2022/01/20 13:50:42;;;;;;;9.88;2.28;;;23.70;43.20;;;;;;6091107;28;81523;-71
2022/01/20 13:53:43;;;;;;;2.95;1.80;;;23.70;42.70;;;;;;6105699;28;80689;-72
2022/01/20 13:56:43;;;;;;;4.25;1.98;;;23.70;42.80;;;;;;6109612;28;80488;-71
2022/01/20 13:59:44;;;;;;;3.47;1.90;;;23.70;43.10;;;;;;6090052;28;80437;-71
2022/01/20 14:02:47;;;;;;;3.78;1.80;;;23.70;43.70;;;;;;6094678;28;81559;-72
2022/01/20 14:05:49;;;;;;;2.25;1.60;;;23.70;43.70;;;;;;6101027;28;80610;-72
2022/01/20 14:08:50;;;;;;;3.75;2.00;;;23.70;43.60;;;;;;6106313;28;82130;-71
2022/01/20 14:11:50;;;;;;;2.75;1.80;;;23.70;43.50;;;;;;6106169;28;80705;-70
2022/01/20 14:14:51;;;;;;;10.07;3.15;;;23.70;43.30;;;;;;6086286;28;84173;-75
2022/01/20 14:17:53;;;;;;;51.17;10.55;;;23.70;43.60;;;;;;6066240;28;80776;-69
2022/01/20 14:20:54;;;;;;;36.40;9.32;;;23.70;43.70;;;;;;6105427;28;84342;-71
2022/01/20 14:23:54;;;;;;;43.65;10.27;;;23.60;43.50;;;;;;6110962;28;82376;-68
2022/01/20 14:27:01;;;;;;;28.88;8.57;;;23.60;43.40;;;;;;6107856;28;84194;-70
2022/01/20 14:30:01;;;;;;;39.13;10.38;;;23.60;43.40;;;;;;6098415;28;82993;-71
2022/01/20 14:33:02;;;;;;;26.65;8.20;;;23.60;43.20;;;;;;6106573;28;83908;-70
2022/01/20 14:36:02;;;;;;;32.13;7.93;;;23.60;42.80;;;;;;6112321;28;82018;-68
2022/01/20 14:39:03;;;;;;;21.67;7.05;;;23.60;43.10;;;;;;6106804;28;80770;-69
2022/01/20 14:42:03;;;;;;;30.88;7.55;;;23.60;42.60;;;;;;6109049;28;81773;-69
2022/01/20 14:45:04;;;;;;;18.92;6.13;;;23.60;42.70;;;;;;6110834;28;81142;-69
2022/01/20 14:48:04;;;;;;;21.45;7.18;;;23.50;42.70;;;;;;6109043;28;81733;-69
2022/01/20 14:51:08;;;;;;;17.90;6.65;;;23.50;42.70;;;;;;6108159;28;80355;-70
2022/01/20 14:54:09;;;;;;;21.95;6.40;;;23.50;42.70;;;;;;6100895;28;82204;-68
2022/01/20 14:57:09;;;;;;;19.20;5.80;;;23.50;42.70;;;;;;6105854;28;81804;-69
2022/01/20 15:00:10;;;;;;;15.40;5.60;;;23.50;42.60;;;;;;6108227;28;80417;-70
2022/01/20 15:03:10;;;;;;;24.42;5.90;;;23.50;42.30;;;;;;6109363;28;80765;-70
2022/01/20 15:06:11;;;;;;;18.70;5.38;;;23.50;42.30;;;;;;6106378;28;81766;-69
2022/01/20 15:09:11;;;;;;;18.08;4.90;;;23.50;42.30;;;;;;6085376;28;83154;-69
2022/01/20 15:12:12;;;;;;;15.63;5.13;;;23.40;42.00;;;;;;6109465;28;81898;-69
2022/01/20 15:15:12;;;;;;;14.75;3.65;;;23.40;42.00;;;;;;6107567;28;80433;-69
2022/01/20 15:18:13;;;;;;;12.43;4.22;;;23.40;42.20;;;;;;6108591;28;80553;-69
2022/01/20 15:21:14;;;;;;;115.30;51.90;;;23.30;42.40;;;;;;6107772;28;80463;-71
2022/01/20 15:24:14;;;;;;;219.45;102.07;;;23.30;43.20;;;;;;6104332;28;84181;-68
2022/01/20 15:27:15;;;;;;;170.45;81.07;;;23.30;43.50;;;;;;6099821;28;85533;-69
2022/01/20 15:30:16;;;;;;;262.33;121.65;;;23.30;43.10;;;;;;6105890;28;85562;-69
2022/01/20 15:33:16;;;;;;;240.65;118.85;;;23.20;43.30;;;;;;6095798;28;85359;-70
2022/01/20 15:36:17;;;;;;;343.95;160.85;;;23.30;43.40;;;;;;6103103;28;85379;-68
2022/01/20 15:39:17;;;;;;;295.73;142.73;;;23.30;43.60;;;;;;6089249;28;85737;-68
2022/01/20 15:42:18;;;;;;;270.20;125.97;;;23.30;43.40;;;;;;6093675;28;85958;-68
2022/01/20 15:45:19;;;;;;;252.27;124.25;;;23.30;43.40;;;;;;6096287;28;86480;-67
2022/01/20 15:48:19;;;;;;;280.50;133.50;;;23.30;43.30;;;;;;6095514;28;85943;-68
2022/01/20 15:51:20;;;;;;;256.65;125.07;;;23.30;43.50;;;;;;6100932;28;86443;-69
2022/01/20 15:54:20;;;;;;;220.05;109.97;;;23.30;44.00;;;;;;6084165;28;86609;-68
2022/01/20 15:57:20;;;;;;;202.65;97.88;;;23.30;42.50;;;;;;6100795;28;85610;-66
2022/01/20 16:00:21;;;;;;;165.27;82.78;;;23.40;42.60;;;;;;6106426;28;85360;-66
2022/01/20 16:03:21;;;;;;;146.13;70.30;;;23.30;43.10;;;;;;6085852;28;83404;-70
2022/01/20 16:06:22;;;;;;;124.65;60.58;;;23.40;43.00;;;;;;6108040;28;84037;-69
2022/01/20 16:09:22;;;;;;;119.95;56.88;;;23.30;43.00;;;;;;6105963;28;83063;-69
2022/01/20 16:12:23;;;;;;;98.53;49.20;;;23.30;42.30;;;;;;6094887;28;83724;-69
2022/01/20 16:15:23;;;;;;;95.03;43.42;;;23.30;42.60;;;;;;6097453;28;83447;-67
2022/01/20 16:18:26;;;;;;;85.72;38.40;;;23.30;42.00;;;;;;6092513;28;83588;-65
2022/01/20 16:21:26;;;;;;;71.93;35.13;;;23.30;42.70;;;;;;6092806;28;84159;-67
2022/01/20 16:24:27;;;;;;;73.97;32.85;;;23.20;42.40;;;;;;6100275;28;83326;-68
2022/01/20 16:27:27;;;;;;;69.95;31.13;;;23.30;42.40;;;;;;6106091;28;83384;-68
2022/01/20 16:30:28;;;;;;;62.75;26.77;;;23.20;42.50;;;;;;6106056;28;84257;-69
2022/01/20 16:33:28;;;;;;;61.47;24.98;;;23.20;42.50;;;;;;6081255;28;90538;-70
2022/01/20 16:36:29;;;;;;;50.30;22.70;;;23.30;42.30;;;;;;6102926;28;83265;-68
2022/01/20 16:39:29;;;;;;;48.92;22.33;;;23.20;42.10;;;;;;6093888;28;85353;-69
2022/01/20 16:42:30;;;;;;;43.30;21.55;;;23.20;42.00;;;;;;6106067;28;83141;-68
2022/01/20 16:45:30;;;;;;;40.88;17.45;;;23.20;41.80;;;;;;6106611;28;83672;-68
2022/01/20 16:48:31;;;;;;;35.70;17.77;;;23.20;41.90;;;;;;6105348;28;83411;-70
2022/01/20 16:51:31;;;;;;;31.05;14.63;;;23.20;41.80;;;;;;6104942;28;83343;-69
2022/01/20 16:54:32;;;;;;;31.83;15.18;;;23.20;42.10;;;;;;6104756;28;82956;-68
2022/01/20 16:57:32;;;;;;;26.35;13.07;;;23.20;42.20;;;;;;6106958;28;83334;-68